sensor_id;sensor_type;location;lat;lon;timestamp;P1;durP1;ratioP1;P2;durP2;ratioP2
21758;SDS011;11041;50.854;20.580;2023-08-20T00:00:24;22.75;;;20.42;;
21758;SDS011;11041;50.854;20.580;2023-08-20T00:03:17;22.42;;;20.23;;
21758;SDS011;11041;50.854;20.580;2023-08-20T00:05:49;22.48;;;20.40;;
21758;SDS011;11041;50.854;20.580;2023-08-20T00:08:19;23.42;;;21.13;;
21758;SDS011;11041;50.854;20.580;2023-08-20T00:10:52;23.40;;;20.83;;
21758;SDS011;11041;50.854;20.580;2023-08-20T00:13:24;29.25;;;23.80;;
21758;SDS011;11041;50.854;20.580;2023-08-20T00:15:52;24.35;;;21.85;;
21758;SDS011;11041;50.854;20.580;2023-08-20T00:18:25;23.55;;;21.05;;
21758;SDS011;11041;50.854;20.580;2023-08-20T00:20:56;24.33;;;21.55;;
21758;SDS011;11041;50.854;20.580;2023-08-20T00:23:27;24.17;;;21.70;;
21758;SDS011;11041;50.854;20.580;2023-08-20T00:26:00;24.58;;;21.73;;
21758;SDS011;11041;50.854;20.580;2023-08-20T00:28:33;24.38;;;21.70;;
21758;SDS011;11041;50.854;20.580;2023-08-20T00:31:05;24.67;;;22.13;;
21758;SDS011;11041;50.854;20.580;2023-08-20T00:33:38;24.60;;;22.05;;
21758;SDS011;11041;50.854;20.580;2023-08-20T00:36:14;22.90;;;20.52;;
21758;SDS011;11041;50.854;20.580;2023-08-20T00:38:42;23.83;;;21.38;;
21758;SDS011;11041;50.854;20.580;2023-08-20T00:41:13;21.58;;;19.50;;
21758;SDS011;11041;50.854;20.580;2023-08-20T00:43:47;24.80;;;21.00;;
21758;SDS011;11041;50.854;20.580;2023-08-20T00:46:21;21.42;;;19.33;;
21758;SDS011;11041;50.854;20.580;2023-08-20T00:48:53;22.85;;;20.45;;
21758;SDS011;11041;50.854;20.580;2023-08-20T00:51:26;28.50;;;20.70;;
21758;SDS011;11041;50.854;20.580;2023-08-20T00:53:54;21.40;;;19.40;;
21758;SDS011;11041;50.854;20.580;2023-08-20T00:56:26;23.48;;;20.98;;
21758;SDS011;11041;50.854;20.580;2023-08-20T00:58:59;23.55;;;21.02;;
21758;SDS011;11041;50.854;20.580;2023-08-20T01:01:33;23.80;;;20.92;;
21758;SDS011;11041;50.854;20.580;2023-08-20T01:04:04;23.92;;;21.45;;
21758;SDS011;11041;50.854;20.580;2023-08-20T01:12:21;27.05;;;21.77;;
21758;SDS011;11041;50.854;20.580;2023-08-20T01:14:57;25.35;;;21.95;;
21758;SDS011;11041;50.854;20.580;2023-08-20T01:17:26;23.38;;;20.98;;
21758;SDS011;11041;50.854;20.580;2023-08-20T01:19:56;24.27;;;21.55;;
21758;SDS011;11041;50.854;20.580;2023-08-20T01:29:02;22.35;;;20.15;;
21758;SDS011;11041;50.854;20.580;2023-08-20T01:31:35;25.73;;;23.17;;
21758;SDS011;11041;50.854;20.580;2023-08-20T01:34:07;26.70;;;21.85;;
21758;SDS011;11041;50.854;20.580;2023-08-20T01:36:39;23.90;;;21.48;;
21758;SDS011;11041;50.854;20.580;2023-08-20T01:39:12;24.90;;;21.05;;
21758;SDS011;11041;50.854;20.580;2023-08-20T01:41:45;25.65;;;22.40;;
21758;SDS011;11041;50.854;20.580;2023-08-20T01:44:21;23.35;;;20.88;;
21758;SDS011;11041;50.854;20.580;2023-08-20T01:46:55;23.58;;;21.17;;
21758;SDS011;11041;50.854;20.580;2023-08-20T01:49:24;24.30;;;21.77;;
21758;SDS011;11041;50.854;20.580;2023-08-20T01:51:53;23.40;;;21.00;;
21758;SDS011;11041;50.854;20.580;2023-08-20T01:54:20;24.63;;;22.00;;
21758;SDS011;11041;50.854;20.580;2023-08-20T01:56:56;25.10;;;22.20;;
21758;SDS011;11041;50.854;20.580;2023-08-20T01:59:29;25.40;;;21.70;;
21758;SDS011;11041;50.854;20.580;2023-08-20T02:01:58;23.75;;;21.30;;
21758;SDS011;11041;50.854;20.580;2023-08-20T02:04:33;25.50;;;22.25;;
21758;SDS011;11041;50.854;20.580;2023-08-20T02:07:00;25.17;;;22.58;;
21758;SDS011;11041;50.854;20.580;2023-08-20T02:09:34;25.55;;;22.08;;
21758;SDS011;11041;50.854;20.580;2023-08-20T02:12:04;26.13;;;23.20;;
21758;SDS011;11041;50.854;20.580;2023-08-20T02:14:39;22.80;;;20.40;;
21758;SDS011;11041;50.854;20.580;2023-08-20T02:17:10;23.75;;;21.35;;
21758;SDS011;11041;50.854;20.580;2023-08-20T02:19:44;26.27;;;23.67;;
21758;SDS011;11041;50.854;20.580;2023-08-20T02:22:15;24.15;;;21.65;;
21758;SDS011;11041;50.854;20.580;2023-08-20T02:24:49;22.52;;;20.33;;
21758;SDS011;11041;50.854;20.580;2023-08-20T02:27:22;27.63;;;21.70;;
21758;SDS011;11041;50.854;20.580;2023-08-20T02:29:54;25.17;;;21.50;;
21758;SDS011;11041;50.854;20.580;2023-08-20T02:32:24;24.65;;;22.15;;
21758;SDS011;11041;50.854;20.580;2023-08-20T02:34:58;24.02;;;21.45;;
21758;SDS011;11041;50.854;20.580;2023-08-20T02:37:28;24.02;;;21.50;;
21758;SDS011;11041;50.854;20.580;2023-08-20T02:40:00;27.23;;;20.90;;
21758;SDS011;11041;50.854;20.580;2023-08-20T02:42:27;24.33;;;21.95;;
21758;SDS011;11041;50.854;20.580;2023-08-20T02:44:56;24.75;;;22.23;;
21758;SDS011;11041;50.854;20.580;2023-08-20T02:47:27;25.92;;;22.02;;
21758;SDS011;11041;50.854;20.580;2023-08-20T02:49:56;26.80;;;21.77;;
21758;SDS011;11041;50.854;20.580;2023-08-20T02:52:25;28.10;;;23.30;;
21758;SDS011;11041;50.854;20.580;2023-08-20T02:54:59;24.52;;;21.65;;
21758;SDS011;11041;50.854;20.580;2023-08-20T02:57:32;24.08;;;21.60;;
21758;SDS011;11041;50.854;20.580;2023-08-20T03:00:03;23.20;;;20.65;;
21758;SDS011;11041;50.854;20.580;2023-08-20T03:02:31;27.90;;;24.83;;
21758;SDS011;11041;50.854;20.580;2023-08-20T03:05:04;25.55;;;22.85;;
21758;SDS011;11041;50.854;20.580;2023-08-20T03:07:40;24.55;;;22.02;;
21758;SDS011;11041;50.854;20.580;2023-08-20T03:10:13;25.38;;;20.73;;
21758;SDS011;11041;50.854;20.580;2023-08-20T03:12:46;24.38;;;21.88;;
21758;SDS011;11041;50.854;20.580;2023-08-20T03:15:19;24.13;;;21.73;;
21758;SDS011;11041;50.854;20.580;2023-08-20T03:17:50;24.95;;;22.35;;
21758;SDS011;11041;50.854;20.580;2023-08-20T03:20:19;25.30;;;22.63;;
21758;SDS011;11041;50.854;20.580;2023-08-20T03:22:51;26.08;;;21.83;;
21758;SDS011;11041;50.854;20.580;2023-08-20T03:25:18;29.75;;;22.52;;
21758;SDS011;11041;50.854;20.580;2023-08-20T03:27:52;25.55;;;22.90;;
21758;SDS011;11041;50.854;20.580;2023-08-20T03:30:22;44.67;;;26.02;;
21758;SDS011;11041;50.854;20.580;2023-08-20T03:32:51;33.40;;;26.40;;
21758;SDS011;11041;50.854;20.580;2023-08-20T03:35:25;28.00;;;23.63;;
21758;SDS011;11041;50.854;20.580;2023-08-20T03:37:57;25.60;;;23.00;;
21758;SDS011;11041;50.854;20.580;2023-08-20T03:40:24;24.20;;;21.80;;
21758;SDS011;11041;50.854;20.580;2023-08-20T03:42:56;25.30;;;22.70;;
21758;SDS011;11041;50.854;20.580;2023-08-20T03:45:25;27.00;;;24.10;;
21758;SDS011;11041;50.854;20.580;2023-08-20T03:47:58;25.02;;;22.42;;
21758;SDS011;11041;50.854;20.580;2023-08-20T03:50:30;25.85;;;22.60;;
21758;SDS011;11041;50.854;20.580;2023-08-20T03:53:05;28.20;;;25.27;;
21758;SDS011;11041;50.854;20.580;2023-08-20T03:55:36;26.73;;;23.92;;
21758;SDS011;11041;50.854;20.580;2023-08-20T03:58:10;28.42;;;25.13;;
21758;SDS011;11041;50.854;20.580;2023-08-20T04:00:42;25.95;;;23.35;;
21758;SDS011;11041;50.854;20.580;2023-08-20T04:03:12;29.48;;;23.98;;
21758;SDS011;11041;50.854;20.580;2023-08-20T04:05:45;24.13;;;21.67;;
21758;SDS011;11041;50.854;20.580;2023-08-20T04:08:12;26.17;;;23.38;;
21758;SDS011;11041;50.854;20.580;2023-08-20T04:10:44;25.95;;;23.20;;
21758;SDS011;11041;50.854;20.580;2023-08-20T04:13:21;26.75;;;23.95;;
21758;SDS011;11041;50.854;20.580;2023-08-20T04:15:49;25.63;;;22.92;;
21758;SDS011;11041;50.854;20.580;2023-08-20T04:18:20;24.73;;;22.10;;
21758;SDS011;11041;50.854;20.580;2023-08-20T04:20:52;26.42;;;23.77;;
21758;SDS011;11041;50.854;20.580;2023-08-20T04:23:23;26.45;;;23.40;;
21758;SDS011;11041;50.854;20.580;2023-08-20T04:25:54;25.73;;;23.00;;
21758;SDS011;11041;50.854;20.580;2023-08-20T04:28:27;26.77;;;23.92;;
21758;SDS011;11041;50.854;20.580;2023-08-20T04:30:58;27.02;;;24.27;;
21758;SDS011;11041;50.854;20.580;2023-08-20T04:33:27;27.52;;;24.52;;
21758;SDS011;11041;50.854;20.580;2023-08-20T04:35:57;26.92;;;24.02;;
21758;SDS011;11041;50.854;20.580;2023-08-20T04:38:28;27.40;;;24.45;;
21758;SDS011;11041;50.854;20.580;2023-08-20T04:40:58;26.73;;;23.83;;
21758;SDS011;11041;50.854;20.580;2023-08-20T04:43:31;28.00;;;24.23;;
21758;SDS011;11041;50.854;20.580;2023-08-20T04:46:04;25.23;;;22.35;;
21758;SDS011;11041;50.854;20.580;2023-08-20T04:48:35;26.40;;;23.80;;
21758;SDS011;11041;50.854;20.580;2023-08-20T04:51:04;26.20;;;23.33;;
21758;SDS011;11041;50.854;20.580;2023-08-20T04:53:37;25.02;;;22.48;;
21758;SDS011;11041;50.854;20.580;2023-08-20T04:56:06;26.63;;;24.00;;
21758;SDS011;11041;50.854;20.580;2023-08-20T04:58:38;26.10;;;23.40;;
21758;SDS011;11041;50.854;20.580;2023-08-20T05:01:09;26.77;;;23.60;;
21758;SDS011;11041;50.854;20.580;2023-08-20T05:03:38;28.15;;;25.13;;
21758;SDS011;11041;50.854;20.580;2023-08-20T05:06:09;27.27;;;24.10;;
21758;SDS011;11041;50.854;20.580;2023-08-20T05:08:38;27.35;;;24.55;;
21758;SDS011;11041;50.854;20.580;2023-08-20T05:11:07;27.08;;;24.27;;
21758;SDS011;11041;50.854;20.580;2023-08-20T05:13:43;27.23;;;24.50;;
21758;SDS011;11041;50.854;20.580;2023-08-20T05:16:11;27.30;;;23.48;;
21758;SDS011;11041;50.854;20.580;2023-08-20T05:18:45;26.10;;;23.38;;
21758;SDS011;11041;50.854;20.580;2023-08-20T05:21:14;28.10;;;24.25;;
21758;SDS011;11041;50.854;20.580;2023-08-20T05:23:47;26.70;;;23.85;;
21758;SDS011;11041;50.854;20.580;2023-08-20T05:26:14;26.13;;;22.58;;
21758;SDS011;11041;50.854;20.580;2023-08-20T05:28:41;25.05;;;22.42;;
21758;SDS011;11041;50.854;20.580;2023-08-20T05:31:10;25.23;;;22.73;;
21758;SDS011;11041;50.854;20.580;2023-08-20T05:33:36;23.48;;;20.95;;
21758;SDS011;11041;50.854;20.580;2023-08-20T05:36:03;23.42;;;21.13;;
21758;SDS011;11041;50.854;20.580;2023-08-20T05:38:34;23.85;;;21.55;;
21758;SDS011;11041;50.854;20.580;2023-08-20T05:41:04;24.33;;;21.95;;
21758;SDS011;11041;50.854;20.580;2023-08-20T05:43:35;23.15;;;20.95;;
21758;SDS011;11041;50.854;20.580;2023-08-20T05:46:03;21.95;;;19.38;;
21758;SDS011;11041;50.854;20.580;2023-08-20T05:48:31;20.98;;;18.83;;
21758;SDS011;11041;50.854;20.580;2023-08-20T05:50:58;22.60;;;19.90;;
21758;SDS011;11041;50.854;20.580;2023-08-20T05:53:27;21.77;;;19.70;;
21758;SDS011;11041;50.854;20.580;2023-08-20T05:55:54;22.45;;;20.33;;
21758;SDS011;11041;50.854;20.580;2023-08-20T05:58:21;24.13;;;21.38;;
21758;SDS011;11041;50.854;20.580;2023-08-20T06:00:48;33.58;;;30.00;;
21758;SDS011;11041;50.854;20.580;2023-08-20T06:03:14;27.08;;;23.98;;
21758;SDS011;11041;50.854;20.580;2023-08-20T06:05:41;29.98;;;26.92;;
21758;SDS011;11041;50.854;20.580;2023-08-20T06:08:10;34.05;;;29.63;;
21758;SDS011;11041;50.854;20.580;2023-08-20T06:10:37;31.75;;;28.42;;
21758;SDS011;11041;50.854;20.580;2023-08-20T06:13:04;35.03;;;31.48;;
21758;SDS011;11041;50.854;20.580;2023-08-20T06:15:30;33.75;;;29.70;;
21758;SDS011;11041;50.854;20.580;2023-08-20T06:17:57;33.65;;;29.95;;
21758;SDS011;11041;50.854;20.580;2023-08-20T06:20:25;33.78;;;30.08;;
21758;SDS011;11041;50.854;20.580;2023-08-20T06:23:03;34.53;;;31.13;;
21758;SDS011;11041;50.854;20.580;2023-08-20T06:25:34;36.78;;;33.28;;
21758;SDS011;11041;50.854;20.580;2023-08-20T06:28:00;37.38;;;33.70;;
21758;SDS011;11041;50.854;20.580;2023-08-20T06:30:33;39.45;;;35.55;;
21758;SDS011;11041;50.854;20.580;2023-08-20T06:33:04;36.83;;;33.30;;
21758;SDS011;11041;50.854;20.580;2023-08-20T06:35:41;36.03;;;32.35;;
21758;SDS011;11041;50.854;20.580;2023-08-20T06:38:11;35.22;;;31.85;;
21758;SDS011;11041;50.854;20.580;2023-08-20T06:40:45;35.38;;;31.73;;
21758;SDS011;11041;50.854;20.580;2023-08-20T06:43:17;33.42;;;30.23;;
21758;SDS011;11041;50.854;20.580;2023-08-20T06:45:52;34.08;;;30.67;;
21758;SDS011;11041;50.854;20.580;2023-08-20T06:48:23;29.55;;;26.65;;
21758;SDS011;11041;50.854;20.580;2023-08-20T06:50:52;32.75;;;29.20;;
21758;SDS011;11041;50.854;20.580;2023-08-20T06:53:18;31.75;;;28.10;;
21758;SDS011;11041;50.854;20.580;2023-08-20T06:55:45;30.48;;;27.33;;
21758;SDS011;11041;50.854;20.580;2023-08-20T06:58:12;30.92;;;27.83;;
21758;SDS011;11041;50.854;20.580;2023-08-20T07:00:39;31.55;;;28.38;;
21758;SDS011;11041;50.854;20.580;2023-08-20T07:03:16;30.17;;;27.20;;
21758;SDS011;11041;50.854;20.580;2023-08-20T07:05:44;29.80;;;26.90;;
21758;SDS011;11041;50.854;20.580;2023-08-20T07:08:14;29.95;;;26.88;;
21758;SDS011;11041;50.854;20.580;2023-08-20T07:10:46;28.15;;;25.25;;
21758;SDS011;11041;50.854;20.580;2023-08-20T07:13:12;30.15;;;27.00;;
21758;SDS011;11041;50.854;20.580;2023-08-20T07:15:41;27.92;;;25.13;;
21758;SDS011;11041;50.854;20.580;2023-08-20T07:18:08;28.77;;;26.05;;
21758;SDS011;11041;50.854;20.580;2023-08-20T07:20:43;29.25;;;26.35;;
21758;SDS011;11041;50.854;20.580;2023-08-20T07:23:10;31.08;;;27.95;;
21758;SDS011;11041;50.854;20.580;2023-08-20T07:25:40;30.02;;;27.05;;
21758;SDS011;11041;50.854;20.580;2023-08-20T07:28:08;27.83;;;25.17;;
21758;SDS011;11041;50.854;20.580;2023-08-20T07:30:39;27.92;;;25.15;;
21758;SDS011;11041;50.854;20.580;2023-08-20T07:33:08;25.60;;;23.20;;
21758;SDS011;11041;50.854;20.580;2023-08-20T07:35:36;25.60;;;23.23;;
21758;SDS011;11041;50.854;20.580;2023-08-20T07:38:03;23.90;;;21.48;;
21758;SDS011;11041;50.854;20.580;2023-08-20T07:40:35;23.98;;;21.67;;
21758;SDS011;11041;50.854;20.580;2023-08-20T07:43:03;24.75;;;22.10;;
21758;SDS011;11041;50.854;20.580;2023-08-20T07:45:35;23.17;;;20.92;;
21758;SDS011;11041;50.854;20.580;2023-08-20T07:48:07;22.45;;;20.23;;
21758;SDS011;11041;50.854;20.580;2023-08-20T07:50:34;22.05;;;19.92;;
21758;SDS011;11041;50.854;20.580;2023-08-20T07:53:01;23.10;;;20.70;;
21758;SDS011;11041;50.854;20.580;2023-08-20T07:55:31;21.05;;;18.92;;
21758;SDS011;11041;50.854;20.580;2023-08-20T07:58:08;20.67;;;18.83;;
21758;SDS011;11041;50.854;20.580;2023-08-20T08:00:36;21.10;;;19.10;;
21758;SDS011;11041;50.854;20.580;2023-08-20T08:03:05;18.58;;;16.77;;
21758;SDS011;11041;50.854;20.580;2023-08-20T08:05:32;17.67;;;16.05;;
21758;SDS011;11041;50.854;20.580;2023-08-20T08:07:59;17.70;;;16.02;;
21758;SDS011;11041;50.854;20.580;2023-08-20T08:10:31;19.00;;;17.08;;
21758;SDS011;11041;50.854;20.580;2023-08-20T08:12:57;17.23;;;15.73;;
21758;SDS011;11041;50.854;20.580;2023-08-20T08:15:26;16.77;;;15.07;;
21758;SDS011;11041;50.854;20.580;2023-08-20T08:17:55;16.58;;;15.15;;
21758;SDS011;11041;50.854;20.580;2023-08-20T08:20:22;17.27;;;15.68;;
21758;SDS011;11041;50.854;20.580;2023-08-20T08:22:50;17.83;;;16.23;;
21758;SDS011;11041;50.854;20.580;2023-08-20T08:25:19;16.85;;;15.25;;
21758;SDS011;11041;50.854;20.580;2023-08-20T08:27:46;17.55;;;15.80;;
21758;SDS011;11041;50.854;20.580;2023-08-20T08:30:13;16.90;;;15.30;;
21758;SDS011;11041;50.854;20.580;2023-08-20T08:32:40;17.40;;;15.80;;
21758;SDS011;11041;50.854;20.580;2023-08-20T08:35:11;15.38;;;13.77;;
21758;SDS011;11041;50.854;20.580;2023-08-20T08:37:43;14.63;;;13.38;;
21758;SDS011;11041;50.854;20.580;2023-08-20T08:40:16;15.38;;;13.98;;
21758;SDS011;11041;50.854;20.580;2023-08-20T08:42:45;13.63;;;12.20;;
21758;SDS011;11041;50.854;20.580;2023-08-20T08:45:21;15.27;;;13.98;;
21758;SDS011;11041;50.854;20.580;2023-08-20T08:47:52;13.80;;;12.60;;
21758;SDS011;11041;50.854;20.580;2023-08-20T08:50:25;13.20;;;12.10;;
21758;SDS011;11041;50.854;20.580;2023-08-20T08:52:55;13.93;;;11.23;;
21758;SDS011;11041;50.854;20.580;2023-08-20T08:55:31;15.30;;;13.95;;
21758;SDS011;11041;50.854;20.580;2023-08-20T08:58:03;13.75;;;12.45;;
21758;SDS011;11041;50.854;20.580;2023-08-20T09:00:32;12.95;;;11.75;;
21758;SDS011;11041;50.854;20.580;2023-08-20T09:03:04;13.73;;;12.38;;
21758;SDS011;11041;50.854;20.580;2023-08-20T09:05:51;12.65;;;11.55;;
21758;SDS011;11041;50.854;20.580;2023-08-20T09:08:29;12.00;;;10.80;;
21758;SDS011;11041;50.854;20.580;2023-08-20T09:11:03;14.75;;;12.35;;
21758;SDS011;11041;50.854;20.580;2023-08-20T09:13:36;12.80;;;11.10;;
21758;SDS011;11041;50.854;20.580;2023-08-20T09:16:12;13.07;;;11.80;;
21758;SDS011;11041;50.854;20.580;2023-08-20T09:18:42;13.88;;;12.43;;
21758;SDS011;11041;50.854;20.580;2023-08-20T09:21:14;13.75;;;12.27;;
21758;SDS011;11041;50.854;20.580;2023-08-20T09:23:45;12.43;;;11.23;;
21758;SDS011;11041;50.854;20.580;2023-08-20T09:26:20;13.27;;;11.82;;
21758;SDS011;11041;50.854;20.580;2023-08-20T09:28:49;13.30;;;11.98;;
21758;SDS011;11041;50.854;20.580;2023-08-20T09:31:22;13.25;;;12.07;;
21758;SDS011;11041;50.854;20.580;2023-08-20T09:34:05;11.35;;;10.38;;
21758;SDS011;11041;50.854;20.580;2023-08-20T09:36:40;11.73;;;10.52;;
21758;SDS011;11041;50.854;20.580;2023-08-20T09:39:17;12.30;;;11.15;;
21758;SDS011;11041;50.854;20.580;2023-08-20T09:41:54;13.05;;;11.85;;
21758;SDS011;11041;50.854;20.580;2023-08-20T09:44:36;13.57;;;12.38;;
21758;SDS011;11041;50.854;20.580;2023-08-20T09:47:12;13.35;;;11.95;;
21758;SDS011;11041;50.854;20.580;2023-08-20T09:49:45;13.35;;;12.15;;
21758;SDS011;11041;50.854;20.580;2023-08-20T09:52:31;13.18;;;11.77;;
21758;SDS011;11041;50.854;20.580;2023-08-20T09:55:13;12.88;;;11.77;;
21758;SDS011;11041;50.854;20.580;2023-08-20T09:57:50;13.50;;;12.23;;
21758;SDS011;11041;50.854;20.580;2023-08-20T10:00:23;12.23;;;11.07;;
21758;SDS011;11041;50.854;20.580;2023-08-20T10:02:54;12.77;;;11.70;;
21758;SDS011;11041;50.854;20.580;2023-08-20T10:05:24;13.07;;;11.93;;
21758;SDS011;11041;50.854;20.580;2023-08-20T10:07:55;12.82;;;11.70;;
21758;SDS011;11041;50.854;20.580;2023-08-20T10:10:31;13.15;;;11.85;;
21758;SDS011;11041;50.854;20.580;2023-08-20T10:13:07;13.55;;;12.38;;
21758;SDS011;11041;50.854;20.580;2023-08-20T10:15:38;13.25;;;11.90;;
21758;SDS011;11041;50.854;20.580;2023-08-20T10:18:10;12.73;;;11.65;;
21758;SDS011;11041;50.854;20.580;2023-08-20T10:20:41;13.25;;;12.13;;
21758;SDS011;11041;50.854;20.580;2023-08-20T10:23:14;12.80;;;11.63;;
21758;SDS011;11041;50.854;20.580;2023-08-20T10:25:54;14.27;;;12.35;;
21758;SDS011;11041;50.854;20.580;2023-08-20T10:28:44;13.23;;;12.05;;
21758;SDS011;11041;50.854;20.580;2023-08-20T10:31:16;12.43;;;11.32;;
21758;SDS011;11041;50.854;20.580;2023-08-20T10:33:55;12.05;;;11.05;;
21758;SDS011;11041;50.854;20.580;2023-08-20T10:36:26;12.98;;;11.98;;
21758;SDS011;11041;50.854;20.580;2023-08-20T10:39:20;13.15;;;12.05;;
21758;SDS011;11041;50.854;20.580;2023-08-20T10:42:07;12.98;;;11.88;;
21758;SDS011;11041;50.854;20.580;2023-08-20T10:44:59;14.07;;;12.68;;
21758;SDS011;11041;50.854;20.580;2023-08-20T10:47:40;13.48;;;12.05;;
21758;SDS011;11041;50.854;20.580;2023-08-20T10:50:17;14.23;;;12.93;;
21758;SDS011;11041;50.854;20.580;2023-08-20T10:52:49;13.60;;;12.32;;
21758;SDS011;11041;50.854;20.580;2023-08-20T10:55:25;13.30;;;12.10;;
21758;SDS011;11041;50.854;20.580;2023-08-20T10:57:59;12.90;;;11.77;;
21758;SDS011;11041;50.854;20.580;2023-08-20T11:00:37;12.95;;;11.77;;
21758;SDS011;11041;50.854;20.580;2023-08-20T11:03:06;13.27;;;11.98;;
21758;SDS011;11041;50.854;20.580;2023-08-20T11:05:38;13.50;;;12.20;;
21758;SDS011;11041;50.854;20.580;2023-08-20T11:08:06;13.25;;;12.05;;
21758;SDS011;11041;50.854;20.580;2023-08-20T11:10:41;12.75;;;11.73;;
21758;SDS011;11041;50.854;20.580;2023-08-20T11:13:14;13.98;;;12.60;;
21758;SDS011;11041;50.854;20.580;2023-08-20T11:15:47;13.88;;;12.68;;
21758;SDS011;11041;50.854;20.580;2023-08-20T11:18:17;13.75;;;12.65;;
21758;SDS011;11041;50.854;20.580;2023-08-20T11:20:48;14.05;;;12.85;;
21758;SDS011;11041;50.854;20.580;2023-08-20T11:23:22;14.35;;;13.00;;
21758;SDS011;11041;50.854;20.580;2023-08-20T11:25:57;13.57;;;12.23;;
21758;SDS011;11041;50.854;20.580;2023-08-20T11:28:28;13.88;;;12.50;;
21758;SDS011;11041;50.854;20.580;2023-08-20T11:30:59;12.88;;;11.77;;
21758;SDS011;11041;50.854;20.580;2023-08-20T11:33:34;13.60;;;12.50;;
21758;SDS011;11041;50.854;20.580;2023-08-20T11:36:10;13.65;;;12.35;;
21758;SDS011;11041;50.854;20.580;2023-08-20T11:38:44;14.50;;;13.30;;
21758;SDS011;11041;50.854;20.580;2023-08-20T11:41:29;15.40;;;14.10;;
21758;SDS011;11041;50.854;20.580;2023-08-20T11:44:07;14.65;;;13.35;;
21758;SDS011;11041;50.854;20.580;2023-08-20T11:46:43;14.90;;;13.63;;
21758;SDS011;11041;50.854;20.580;2023-08-20T11:49:13;16.52;;;14.80;;
21758;SDS011;11041;50.854;20.580;2023-08-20T11:51:53;14.70;;;13.40;;
21758;SDS011;11041;50.854;20.580;2023-08-20T11:54:26;14.77;;;13.35;;
21758;SDS011;11041;50.854;20.580;2023-08-20T11:57:03;14.45;;;13.23;;
21758;SDS011;11041;50.854;20.580;2023-08-20T11:59:44;14.90;;;13.50;;
21758;SDS011;11041;50.854;20.580;2023-08-20T12:02:24;13.85;;;12.65;;
21758;SDS011;11041;50.854;20.580;2023-08-20T12:04:59;14.20;;;13.00;;
21758;SDS011;11041;50.854;20.580;2023-08-20T12:07:30;14.00;;;12.68;;
21758;SDS011;11041;50.854;20.580;2023-08-20T12:09:57;14.30;;;12.98;;
21758;SDS011;11041;50.854;20.580;2023-08-20T12:12:55;13.80;;;12.35;;
21758;SDS011;11041;50.854;20.580;2023-08-20T12:15:27;13.88;;;12.68;;
21758;SDS011;11041;50.854;20.580;2023-08-20T12:18:03;12.82;;;11.82;;
21758;SDS011;11041;50.854;20.580;2023-08-20T12:20:37;12.40;;;11.35;;
21758;SDS011;11041;50.854;20.580;2023-08-20T12:23:12;12.60;;;11.30;;
21758;SDS011;11041;50.854;20.580;2023-08-20T12:25:49;12.57;;;11.40;;
21758;SDS011;11041;50.854;20.580;2023-08-20T12:28:20;13.40;;;12.20;;
21758;SDS011;11041;50.854;20.580;2023-08-20T12:30:52;12.77;;;11.68;;
21758;SDS011;11041;50.854;20.580;2023-08-20T12:33:32;13.00;;;11.73;;
21758;SDS011;11041;50.854;20.580;2023-08-20T12:36:03;12.98;;;11.80;;
21758;SDS011;11041;50.854;20.580;2023-08-20T12:38:41;13.43;;;11.73;;
21758;SDS011;11041;50.854;20.580;2023-08-20T12:41:12;12.75;;;11.48;;
21758;SDS011;11041;50.854;20.580;2023-08-20T12:43:45;12.73;;;11.50;;
21758;SDS011;11041;50.854;20.580;2023-08-20T12:46:16;12.35;;;11.43;;
21758;SDS011;11041;50.854;20.580;2023-08-20T12:48:50;12.85;;;11.70;;
21758;SDS011;11041;50.854;20.580;2023-08-20T12:51:19;12.75;;;11.65;;
21758;SDS011;11041;50.854;20.580;2023-08-20T12:53:57;12.73;;;11.68;;
21758;SDS011;11041;50.854;20.580;2023-08-20T12:56:28;11.95;;;11.05;;
21758;SDS011;11041;50.854;20.580;2023-08-20T12:59:05;12.27;;;11.25;;
21758;SDS011;11041;50.854;20.580;2023-08-20T13:01:37;11.98;;;10.80;;
21758;SDS011;11041;50.854;20.580;2023-08-20T13:04:14;12.38;;;11.00;;
21758;SDS011;11041;50.854;20.580;2023-08-20T13:06:49;12.10;;;10.98;;
21758;SDS011;11041;50.854;20.580;2023-08-20T13:09:20;11.98;;;10.98;;
21758;SDS011;11041;50.854;20.580;2023-08-20T13:11:55;12.23;;;11.07;;
21758;SDS011;11041;50.854;20.580;2023-08-20T13:14:32;12.00;;;10.90;;
21758;SDS011;11041;50.854;20.580;2023-08-20T13:17:02;11.68;;;10.70;;
21758;SDS011;11041;50.854;20.580;2023-08-20T13:19:39;10.57;;;9.68;;
21758;SDS011;11041;50.854;20.580;2023-08-20T13:22:12;11.43;;;10.32;;
21758;SDS011;11041;50.854;20.580;2023-08-20T13:24:47;11.73;;;10.80;;
21758;SDS011;11041;50.854;20.580;2023-08-20T13:27:18;11.55;;;10.35;;
21758;SDS011;11041;50.854;20.580;2023-08-20T13:29:53;12.02;;;10.82;;
21758;SDS011;11041;50.854;20.580;2023-08-20T13:32:28;11.00;;;10.10;;
21758;SDS011;11041;50.854;20.580;2023-08-20T13:34:59;11.55;;;10.65;;
21758;SDS011;11041;50.854;20.580;2023-08-20T13:37:28;12.60;;;11.50;;
21758;SDS011;11041;50.854;20.580;2023-08-20T13:39:59;11.88;;;10.88;;
21758;SDS011;11041;50.854;20.580;2023-08-20T13:42:30;10.55;;;9.75;;
21758;SDS011;11041;50.854;20.580;2023-08-20T13:44:59;10.50;;;9.48;;
21758;SDS011;11041;50.854;20.580;2023-08-20T13:47:29;10.07;;;9.27;;
21758;SDS011;11041;50.854;20.580;2023-08-20T13:50:02;9.95;;;9.15;;
21758;SDS011;11041;50.854;20.580;2023-08-20T13:52:34;11.77;;;10.68;;
21758;SDS011;11041;50.854;20.580;2023-08-20T13:55:07;12.40;;;9.57;;
21758;SDS011;11041;50.854;20.580;2023-08-20T13:57:38;11.45;;;10.27;;
21758;SDS011;11041;50.854;20.580;2023-08-20T14:00:14;10.70;;;9.77;;
21758;SDS011;11041;50.854;20.580;2023-08-20T14:02:45;11.18;;;10.18;;
21758;SDS011;11041;50.854;20.580;2023-08-20T14:05:17;12.18;;;11.07;;
21758;SDS011;11041;50.854;20.580;2023-08-20T14:07:51;11.27;;;10.25;;
21758;SDS011;11041;50.854;20.580;2023-08-20T14:10:23;10.25;;;9.52;;
21758;SDS011;11041;50.854;20.580;2023-08-20T14:12:54;10.80;;;9.90;;
21758;SDS011;11041;50.854;20.580;2023-08-20T14:15:32;11.18;;;10.07;;
21758;SDS011;11041;50.854;20.580;2023-08-20T14:18:04;10.70;;;9.77;;
21758;SDS011;11041;50.854;20.580;2023-08-20T14:20:39;11.88;;;10.65;;
21758;SDS011;11041;50.854;20.580;2023-08-20T14:23:08;11.02;;;10.13;;
21758;SDS011;11041;50.854;20.580;2023-08-20T14:25:39;10.57;;;9.68;;
21758;SDS011;11041;50.854;20.580;2023-08-20T14:28:07;10.98;;;10.07;;
21758;SDS011;11041;50.854;20.580;2023-08-20T14:30:39;10.65;;;8.73;;
21758;SDS011;11041;50.854;20.580;2023-08-20T14:33:11;12.98;;;11.70;;
21758;SDS011;11041;50.854;20.580;2023-08-20T14:35:46;10.30;;;9.30;;
21758;SDS011;11041;50.854;20.580;2023-08-20T14:38:17;10.50;;;9.60;;
21758;SDS011;11041;50.854;20.580;2023-08-20T14:40:47;12.68;;;11.57;;
21758;SDS011;11041;50.854;20.580;2023-08-20T14:43:20;12.65;;;11.65;;
21758;SDS011;11041;50.854;20.580;2023-08-20T14:45:50;10.57;;;9.77;;
21758;SDS011;11041;50.854;20.580;2023-08-20T14:48:22;10.75;;;9.75;;